createdAt,value
2022-09-20T00:02:23.745Z,100.00
2022-09-20T00:07:26.448Z,100.00
2022-09-20T00:12:29.243Z,100.00
2022-09-20T00:17:32.251Z,100.00
2022-09-20T00:22:34.947Z,100.00
2022-09-20T00:27:37.657Z,100.00
2022-09-20T00:32:41.297Z,100.00
2022-09-20T00:37:44.073Z,100.00
2022-09-20T00:42:48.299Z,100.00
2022-09-20T00:48:07.932Z,100.00
2022-09-20T00:53:31.680Z,100.00
2022-09-20T00:58:40.234Z,100.00
2022-09-20T01:03:43.555Z,100.00
2022-09-20T01:08:50.855Z,100.00
2022-09-20T01:13:53.534Z,100.00
2022-09-20T01:18:59.031Z,100.00
2022-09-20T01:24:07.503Z,100.00
2022-09-20T01:29:28.884Z,100.00
2022-09-20T01:34:36.440Z,100.00
2022-09-20T01:39:54.351Z,100.00
2022-09-20T01:45:09.963Z,100.00
2022-09-20T01:50:30.363Z,100.00
2022-09-20T01:56:06.850Z,100.00
2022-09-20T02:01:50.924Z,100.00
2022-09-20T02:07:25.588Z,100.00
2022-09-20T02:12:49.980Z,100.00
2022-09-20T02:18:14.183Z,100.00
2022-09-20T02:23:32.140Z,100.00
2022-09-20T02:28:49.469Z,100.00
2022-09-20T02:34:01.191Z,100.00
2022-09-20T02:39:21.501Z,100.00
2022-09-20T02:44:46.011Z,100.00
2022-09-20T02:50:00.200Z,100.00
2022-09-20T02:55:13.955Z,100.00
2022-09-20T03:00:27.198Z,100.00
2022-09-20T03:05:32.543Z,100.00
2022-09-20T03:11:03.305Z,100.00
2022-09-20T03:16:22.950Z,100.00
2022-09-20T03:21:37.829Z,100.00
2022-09-20T03:27:05.373Z,100.00
2022-09-20T03:32:50.883Z,100.00
2022-09-20T03:37:53.447Z,100.00
2022-09-20T03:43:18.184Z,100.00
2022-09-20T03:48:43.445Z,100.00
2022-09-20T03:54:01.418Z,100.00
2022-09-20T03:59:41.669Z,100.00
2022-09-20T04:04:55.922Z,100.00
2022-09-20T04:10:14.074Z,100.00
2022-09-20T04:15:26.070Z,100.00
2022-09-20T04:20:36.367Z,100.00
2022-09-20T04:25:44.609Z,100.00
2022-09-20T04:30:51.792Z,100.00
2022-09-20T04:36:31.581Z,100.00
2022-09-20T04:41:59.764Z,100.00
2022-09-20T04:47:15.468Z,100.00
2022-09-20T04:52:52.059Z,100.00
2022-09-20T04:58:25.993Z,100.00
2022-09-20T05:03:49.899Z,100.00
2022-09-20T05:09:30.476Z,100.00
2022-09-20T05:14:45.362Z,100.00
2022-09-20T05:19:58.713Z,100.00
2022-09-20T05:25:19.329Z,100.00
2022-09-20T05:30:28.460Z,100.00
2022-09-20T05:35:49.184Z,100.00
2022-09-20T05:41:07.845Z,100.00
2022-09-20T05:46:22.553Z,100.00
2022-09-20T05:52:02.337Z,100.00
2022-09-20T05:57:10.677Z,100.00
2022-09-20T06:02:22.663Z,100.00
2022-09-20T06:07:52.602Z,100.00
2022-09-20T06:13:20.730Z,100.00
2022-09-20T06:18:58.871Z,100.00
2022-09-20T06:24:03.332Z,100.00
2022-09-20T06:29:14.364Z,100.00
2022-09-20T06:34:19.662Z,100.00
2022-09-20T06:39:47.181Z,100.00
2022-09-20T06:44:50.111Z,100.00
2022-09-20T06:49:53.361Z,100.00
2022-09-20T06:54:56.972Z,100.00
2022-09-20T06:59:59.731Z,100.00
2022-09-20T07:05:04.816Z,100.00
2022-09-20T07:10:08.045Z,100.00
2022-09-20T07:15:10.921Z,100.00
2022-09-20T07:20:14.542Z,100.00
2022-09-20T07:25:20.867Z,100.00
2022-09-20T07:30:24.214Z,100.00
2022-09-20T07:35:26.933Z,100.00
2022-09-20T07:40:29.831Z,100.00
2022-09-20T07:45:35.207Z,100.00
2022-09-20T07:50:37.928Z,100.00
2022-09-20T07:55:40.557Z,100.00
2022-09-20T08:00:43.194Z,100.00
2022-09-20T08:05:45.850Z,100.00
2022-09-20T08:10:48.569Z,100.00
2022-09-20T08:15:51.337Z,100.00
2022-09-20T08:20:55.535Z,100.00
2022-09-20T08:25:58.298Z,100.00
2022-09-20T08:31:11.212Z,100.00
2022-09-20T08:36:22.971Z,100.00
2022-09-20T08:41:43.885Z,100.00
2022-09-20T08:46:50.861Z,100.00
2022-09-20T08:51:54.828Z,100.00
2022-09-20T08:56:58.747Z,100.00
2022-09-20T09:02:01.558Z,100.00
2022-09-20T09:07:04.862Z,99.96
2022-09-20T09:12:18.202Z,99.99
2022-09-20T09:17:29.203Z,100.00
2022-09-20T09:22:41.398Z,100.00
2022-09-20T09:27:53.434Z,98.31
2022-09-20T09:33:15.549Z,98.60
2022-09-20T09:38:24.187Z,98.07
2022-09-20T09:43:32.464Z,95.03
2022-09-20T09:48:38.506Z,89.95
2022-09-20T09:53:44.442Z,90.75
2022-09-20T09:59:12.619Z,90.13
2022-09-20T10:04:33.221Z,87.06
2022-09-20T10:10:12.503Z,87.18
2022-09-20T10:15:39.933Z,87.36
2022-09-20T10:21:19.817Z,84.42
2022-09-20T10:26:36.934Z,84.89
2022-09-20T10:31:57.894Z,83.22
2022-09-20T10:37:02.133Z,79.48
2022-09-20T10:42:27.625Z,78.82
2022-09-20T10:48:12.436Z,79.78
2022-09-20T10:53:21.205Z,81.38
2022-09-20T10:58:46.026Z,82.21
2022-09-20T11:03:51.656Z,78.35
2022-09-20T11:09:04.579Z,75.28
2022-09-20T11:14:37.998Z,77.17
2022-09-20T11:19:47.727Z,77.07
2022-09-20T11:25:10.761Z,75.42
2022-09-20T11:30:21.988Z,74.78
2022-09-20T11:35:35.614Z,76.36
2022-09-20T11:40:49.496Z,76.56
2022-09-20T11:45:57.435Z,74.72
2022-09-20T11:51:33.070Z,75.89
2022-09-20T11:56:35.824Z,74.99
2022-09-20T12:01:44.266Z,75.88
2022-09-20T12:06:48.019Z,74.76
2022-09-20T12:11:52.582Z,74.20
2022-09-20T12:16:56.518Z,73.55
2022-09-20T12:21:59.580Z,70.23
2022-09-20T12:27:44.103Z,71.86
2022-09-20T12:32:58.314Z,68.46
2022-09-20T12:38:40.321Z,69.61
2022-09-20T12:43:55.236Z,70.99
2022-09-20T12:49:46.432Z,72.70
2022-09-20T12:54:56.315Z,73.65
2022-09-20T13:00:15.486Z,74.37
2022-09-20T13:05:38.589Z,72.78
2022-09-20T13:11:05.211Z,71.35
2022-09-20T13:16:23.757Z,72.32
2022-09-20T13:21:28.789Z,71.17
2022-09-20T13:26:40.758Z,71.52
2022-09-20T13:31:44.160Z,69.40
2022-09-20T13:36:56.207Z,67.67
2022-09-20T13:42:02.590Z,69.45
2022-09-20T13:47:43.154Z,69.97
2022-09-20T13:53:39.399Z,70.95
2022-09-20T13:58:39.775Z,72.95
2022-09-20T14:03:44.544Z,73.68
2022-09-20T14:08:51.624Z,75.06
2022-09-20T14:13:58.350Z,76.17
2022-09-20T14:19:03.383Z,77.90
2022-09-20T14:24:37.245Z,78.70
2022-09-20T14:29:43.412Z,77.89
2022-09-20T14:35:00.964Z,75.75
2022-09-20T14:40:16.643Z,73.71
2022-09-20T14:45:24.624Z,70.67
2022-09-20T14:50:31.870Z,71.50
2022-09-20T14:55:37.586Z,71.72
2022-09-20T15:01:03.257Z,72.86
2022-09-20T15:06:10.406Z,73.19
2022-09-20T15:11:17.756Z,74.74
2022-09-20T15:16:20.542Z,75.24
2022-09-20T15:21:24.302Z,75.65
2022-09-20T15:26:27.424Z,76.19
2022-09-20T15:31:29.997Z,74.90
2022-09-20T15:36:32.720Z,75.36
2022-09-20T15:41:36.039Z,76.80
2022-09-20T15:46:38.919Z,81.03
2022-09-20T15:51:41.493Z,85.28
2022-09-20T15:56:44.169Z,89.02
2022-09-20T16:01:48.286Z,92.32
2022-09-20T16:06:51.450Z,95.30
2022-09-20T16:11:58.855Z,97.73
2022-09-20T16:17:01.608Z,99.43
2022-09-20T16:22:04.955Z,100.00
2022-09-20T16:27:14.710Z,100.00
2022-09-20T16:32:17.978Z,100.00
2022-09-20T16:37:22.606Z,100.00
2022-09-20T16:42:25.326Z,100.00
2022-09-20T16:47:27.975Z,100.00
2022-09-20T16:52:30.670Z,100.00
2022-09-20T16:57:33.375Z,100.00
2022-09-20T17:02:36.373Z,100.00
2022-09-20T17:07:39.075Z,100.00
2022-09-20T17:12:42.515Z,100.00
2022-09-20T17:17:45.805Z,100.00
2022-09-20T17:22:49.130Z,100.00
2022-09-20T17:27:51.813Z,100.00
2022-09-20T17:32:55.126Z,100.00
2022-09-20T17:37:57.800Z,100.00
2022-09-20T17:43:00.468Z,100.00
2022-09-20T17:48:04.142Z,100.00
2022-09-20T17:53:07.244Z,100.00
2022-09-20T17:58:09.755Z,100.00
2022-09-20T18:03:12.445Z,100.00
2022-09-20T18:08:16.015Z,100.00
2022-09-20T18:13:18.763Z,100.00
2022-09-20T18:18:21.996Z,100.00
2022-09-20T18:23:24.687Z,100.00
2022-09-20T18:28:27.476Z,100.00
2022-09-20T18:33:31.551Z,100.00
2022-09-20T18:38:34.242Z,100.00
2022-09-20T18:43:37.024Z,100.00
2022-09-20T18:48:40.317Z,100.00
2022-09-20T18:53:42.986Z,100.00
2022-09-20T18:58:46.026Z,100.00
2022-09-20T19:04:07.463Z,100.00
2022-09-20T19:09:43.470Z,100.00
2022-09-20T19:15:10.924Z,100.00
2022-09-20T19:20:25.561Z,100.00
2022-09-20T19:25:40.826Z,100.00
2022-09-20T19:30:45.641Z,100.00
2022-09-20T19:35:50.390Z,100.00
2022-09-20T19:41:05.170Z,100.00
2022-09-20T19:46:31.624Z,100.00
2022-09-20T19:51:37.800Z,100.00
2022-09-20T19:56:53.154Z,100.00
2022-09-20T20:01:56.597Z,100.00
2022-09-20T20:07:06.177Z,100.00
2022-09-20T20:12:20.577Z,100.00
2022-09-20T20:17:32.573Z,100.00
2022-09-20T20:22:47.141Z,100.00
2022-09-20T20:27:49.782Z,100.00
2022-09-20T20:32:58.195Z,100.00
2022-09-20T20:38:00.857Z,100.00
2022-09-20T20:43:06.192Z,100.00
2022-09-20T20:48:08.828Z,100.00
2022-09-20T20:53:11.473Z,100.00
2022-09-20T20:58:14.090Z,100.00
2022-09-20T21:03:16.720Z,100.00
2022-09-20T21:08:19.423Z,100.00
2022-09-20T21:13:22.426Z,100.00
2022-09-20T21:18:25.111Z,100.00
2022-09-20T21:23:27.868Z,100.00
2022-09-20T21:28:30.931Z,100.00
2022-09-20T21:33:35.571Z,100.00
2022-09-20T21:38:39.766Z,100.00
2022-09-20T21:43:44.878Z,100.00
2022-09-20T21:48:49.097Z,100.00
2022-09-20T21:53:54.317Z,100.00
2022-09-20T21:58:58.198Z,100.00
2022-09-20T22:04:05.132Z,100.00
2022-09-20T22:09:13.881Z,100.00
2022-09-20T22:14:19.498Z,100.00
2022-09-20T22:19:22.386Z,100.00
2022-09-20T22:24:25.202Z,100.00
2022-09-20T22:29:27.888Z,100.00
2022-09-20T22:34:30.540Z,100.00
2022-09-20T22:39:33.287Z,100.00
2022-09-20T22:44:36.089Z,100.00
2022-09-20T22:49:38.804Z,100.00
2022-09-20T22:54:46.617Z,100.00
2022-09-20T22:59:49.253Z,100.00
2022-09-20T23:04:51.923Z,100.00
2022-09-20T23:09:54.554Z,100.00
2022-09-20T23:14:57.197Z,100.00
2022-09-20T23:19:59.845Z,100.00
2022-09-20T23:25:02.599Z,100.00
2022-09-20T23:30:06.215Z,100.00
2022-09-20T23:35:09.118Z,100.00
2022-09-20T23:40:11.847Z,100.00
2022-09-20T23:45:15.026Z,100.00
2022-09-20T23:50:17.673Z,100.00
2022-09-20T23:55:20.426Z,100.00
